地図

経路データ

SID SEASON NUMBER BASIN SUBBASIN NAME ISO_TIME NATURE LAT LON WMO_WIND WMO_PRES WMO_AGENCY TRACK_TYPE DIST2LAND LANDFALL IFLAG USA_AGENCY USA_ATCF_ID USA_LAT USA_LON USA_RECORD USA_STATUS USA_WIND USA_PRES USA_SSHS USA_R34_NE USA_R34_SE USA_R34_SW USA_R34_NW USA_R50_NE USA_R50_SE USA_R50_SW USA_R50_NW USA_R64_NE USA_R64_SE USA_R64_SW USA_R64_NW USA_POCI USA_ROCI USA_RMW USA_EYE TOKYO_LAT TOKYO_LON TOKYO_GRADE TOKYO_WIND TOKYO_PRES TOKYO_R50_DIR TOKYO_R50_LONG TOKYO_R50_SHORT TOKYO_R30_DIR TOKYO_R30_LONG TOKYO_R30_SHORT TOKYO_LAND CMA_LAT CMA_LON CMA_CAT CMA_WIND CMA_PRES HKO_LAT HKO_LON HKO_CAT HKO_WIND HKO_PRES NEWDELHI_LAT NEWDELHI_LON NEWDELHI_GRADE NEWDELHI_WIND NEWDELHI_PRES NEWDELHI_CI NEWDELHI_DP NEWDELHI_POCI REUNION_LAT REUNION_LON REUNION_TYPE REUNION_WIND REUNION_PRES REUNION_TNUM REUNION_CI REUNION_RMW REUNION_R34_NE REUNION_R34_SE REUNION_R34_SW REUNION_R34_NW REUNION_R50_NE REUNION_R50_SE REUNION_R50_SW REUNION_R50_NW REUNION_R64_NE REUNION_R64_SE REUNION_R64_SW REUNION_R64_NW BOM_LAT BOM_LON BOM_TYPE BOM_WIND BOM_PRES BOM_TNUM BOM_CI BOM_RMW BOM_R34_NE BOM_R34_SE BOM_R34_SW BOM_R34_NW BOM_R50_NE BOM_R50_SE BOM_R50_SW BOM_R50_NW BOM_R64_NE BOM_R64_SE BOM_R64_SW BOM_R64_NW BOM_ROCI BOM_POCI BOM_EYE BOM_POS_METHOD BOM_PRES_METHOD NADI_LAT NADI_LON NADI_CAT NADI_WIND NADI_PRES WELLINGTON_LAT WELLINGTON_LON WELLINGTON_WIND WELLINGTON_PRES DS824_LAT DS824_LON DS824_STAGE DS824_WIND DS824_PRES TD9636_LAT TD9636_LON TD9636_STAGE TD9636_WIND TD9636_PRES TD9635_LAT TD9635_LON TD9635_WIND TD9635_PRES TD9635_ROCI NEUMANN_LAT NEUMANN_LON NEUMANN_CLASS NEUMANN_WIND NEUMANN_PRES MLC_LAT MLC_LON MLC_CLASS MLC_WIND MLC_PRES USA_GUST BOM_GUST BOM_GUST_PER REUNION_GUST REUNION_GUST_PER USA_SEAHGT USA_SEARAD_NE USA_SEARAD_SE USA_SEARAD_SW USA_SEARAD_NW STORM_SPEED STORM_DIR
1937245N13132 1937 38 WP MM NOT_NAMED 1937-09-01 21:00:00 NR 13.2000 131.700 main 682 682 __________O___ -1 13.2000 131.700 2 1 228
1937245N13132 1937 38 WP MM NOT_NAMED 1937-09-02 00:00:00 NR 13.1541 131.650 main 671 669 __________P___ -1 13.1541 131.650 2 2 241
1937245N13132 1937 38 WP MM NOT_NAMED 1937-09-02 03:00:00 NR 13.1266 131.559 main 669 648 __________P___ -1 13.1266 131.559 2 3 266
1937245N13132 1937 38 WP MM NOT_NAMED 1937-09-02 06:00:00 NR 13.1359 131.390 main 648 618 __________P___ -1 13.1359 131.390 2 5 279
1937245N13132 1937 38 WP MM NOT_NAMED 1937-09-02 09:00:00 NR 13.2000 131.100 main 618 577 __________O___ -1 13.2000 131.100 2 7 286
1937245N13132 1937 38 WP MM NOT_NAMED 1937-09-02 12:00:00 NR 13.3312 130.670 main 577 530 __________P___ -1 13.3312 130.670 2 10 289
1937245N13132 1937 38 WP MM NOT_NAMED 1937-09-02 15:00:00 NR 13.5188 130.158 main 530 485 __________P___ -1 13.5188 130.158 2 11 293
1937245N13132 1937 38 WP MM NOT_NAMED 1937-09-02 18:00:00 NR 13.7469 129.642 main 475 448 __________P___ -1 13.7469 129.642 2 11 297
1937245N13132 1937 38 WP MM NOT_NAMED 1937-09-02 21:00:00 NR 14.0000 129.200 main 448 439 __________O___ -1 14.0000 129.200 2 9 308
1937245N13132 1937 38 WP MM NOT_NAMED 1937-09-03 00:00:00 NR 14.2772 128.947 main 436 433 __________P___ -1 14.2772 128.947 2 7 324
1937245N13132 1937 38 WP MM NOT_NAMED 1937-09-03 03:00:00 NR 14.5717 128.775 main 446 438 __________P___ -1 14.5717 128.775 2 7 333
1937245N13132 1937 38 WP MM NOT_NAMED 1937-09-03 06:00:00 NR 14.8554 128.640 main 451 451 __________P___ -1 14.8554 128.640 2 6 333
1937245N13132 1937 38 WP MM NOT_NAMED 1937-09-03 09:00:00 NR 15.1000 128.500 main 458 444 __________O___ -1 15.1000 128.500 2 5 319
1937245N13132 1937 38 WP MM NOT_NAMED 1937-09-03 12:00:00 NR 15.2479 128.281 main 444 428 __________P___ -1 15.2479 128.281 2 5 301
1937245N13132 1937 38 WP MM NOT_NAMED 1937-09-03 15:00:00 NR 15.3576 128.050 main 422 407 __________P___ -1 15.3576 128.050 2 5 296
1937245N13132 1937 38 WP MM NOT_NAMED 1937-09-03 18:00:00 NR 15.4635 127.818 main 407 393 __________P___ -1 15.4635 127.818 2 5 299
1937245N13132 1937 38 WP MM NOT_NAMED 1937-09-03 21:00:00 NR 15.6000 127.600 main 393 383 __________O___ -1 15.6000 127.600 2 5 311
1937245N13132 1937 38 WP MM NOT_NAMED 1937-09-04 00:00:00 NR 15.7976 127.423 main 386 383 __________P___ -1 15.7976 127.423 2 5 323
1937245N13132 1937 38 WP MM NOT_NAMED 1937-09-04 03:00:00 NR 16.0323 127.257 main 390 381 __________P___ -1 16.0323 127.257 2 6 327
1937245N13132 1937 38 WP MM NOT_NAMED 1937-09-04 06:00:00 NR 16.3008 127.088 main 395 395 __________P___ -1 16.3008 127.088 2 7 329
1937245N13132 1937 38 WP MM NOT_NAMED 1937-09-04 09:00:00 NR 16.6000 126.900 main 403 403 __________O___ -1 16.6000 126.900 2 8 326
1937245N13132 1937 38 WP MM NOT_NAMED 1937-09-04 12:00:00 NR 16.9662 126.624 main 416 405 __________P___ -1 16.9662 126.624 2 9 324
1937245N13132 1937 38 WP MM NOT_NAMED 1937-09-04 15:00:00 NR 17.3529 126.334 main 406 388 __________P___ -1 17.3529 126.334 2 9 325
1937245N13132 1937 38 WP MM NOT_NAMED 1937-09-04 18:00:00 NR 17.7131 126.077 main 390 374 __________P___ -1 17.7131 126.077 2 8 328
1937245N13132 1937 38 WP MM NOT_NAMED 1937-09-04 21:00:00 NR 18.0000 125.900 main 377 369 __________O___ -1 18.0000 125.900 2 5 333
1937245N13132 1937 38 WP MM NOT_NAMED 1937-09-05 00:00:00 NR 18.1619 125.839 main 369 369 __________P___ -1 18.1619 125.839 2 3 351
1937245N13132 1937 38 WP MM NOT_NAMED 1937-09-05 03:00:00 NR 18.2471 125.864 main 380 380 __________P___ -1 18.2471 125.864 2 2 42
1937245N13132 1937 38 WP MM NOT_NAMED 1937-09-05 06:00:00 NR 18.2838 125.958 main 390 390 __________P___ -1 18.2838 125.958 2 2 77
1937245N13132 1937 38 WP MM NOT_NAMED 1937-09-05 09:00:00 NR 18.3000 126.100 main 401 401 __________O___ -1 18.3000 126.100 2 3 80
1937245N13132 1937 38 WP MM NOT_NAMED 1937-09-05 12:00:00 NR 18.3354 126.257 main 422 422 __________P___ -1 18.3354 126.257 2 3 80
1937245N13132 1937 38 WP MM NOT_NAMED 1937-09-05 15:00:00 NR 18.3576 126.455 main 443 443 __________P___ -1 18.3576 126.455 2 4 84
1937245N13132 1937 38 WP MM NOT_NAMED 1937-09-05 18:00:00 NR 18.3760 126.676 main 464 464 __________P___ -1 18.3760 126.676 2 4 84
1937245N13132 1937 38 WP MM NOT_NAMED 1937-09-05 21:00:00 NR 18.4000 126.900 main 485 485 __________O___ -1 18.4000 126.900 2 4 80
1937245N13132 1937 38 WP MM NOT_NAMED 1937-09-06 00:00:00 NR 18.4468 127.100 main 506 506 __________P___ -1 18.4468 127.100 2 4 75
1937245N13132 1937 38 WP MM NOT_NAMED 1937-09-06 03:00:00 NR 18.4999 127.300 main 527 527 __________P___ -1 18.4999 127.300 2 4 74
1937245N13132 1937 38 WP MM NOT_NAMED 1937-09-06 06:00:00 NR 18.5531 127.500 main 548 548 __________P___ -1 18.5531 127.500 2 4 75
1937245N13132 1937 38 WP MM NOT_NAMED 1937-09-06 09:00:00 NR 18.6000 127.700 main 569 569 __________O___ -1 18.6000 127.700 2 4 80
1937245N13132 1937 38 WP MM NOT_NAMED 1937-09-06 12:00:00 NR 18.6199 127.900 main 590 590 __________P___ -1 18.6199 127.900 2 4 85
1937245N13132 1937 38 WP MM NOT_NAMED 1937-09-06 15:00:00 NR 18.6349 128.100 main 612 612 __________P___ -1 18.6349 128.100 2 4 84
1937245N13132 1937 38 WP MM NOT_NAMED 1937-09-06 18:00:00 NR 18.6574 128.300 main 633 633 __________P___ -1 18.6574 128.300 2 4 80
1937245N13132 1937 38 WP MM NOT_NAMED 1937-09-06 21:00:00 NR 18.7000 128.500 main 654 654 __________O___ -1 18.7000 128.500 2 4 73
1937245N13132 1937 38 WP MM NOT_NAMED 1937-09-07 00:00:00 NR 18.7703 128.700 main 675 675 __________P___ -1 18.7703 128.700 2 4 67
1937245N13132 1937 38 WP MM NOT_NAMED 1937-09-07 03:00:00 NR 18.8624 128.900 main 697 697 __________P___ -1 18.8624 128.900 2 4 62
1937245N13132 1937 38 WP MM NOT_NAMED 1937-09-07 06:00:00 NR 18.9734 129.100 main 719 719 __________P___ -1 18.9734 129.100 2 4 58
1937245N13132 1937 38 WP MM NOT_NAMED 1937-09-07 09:00:00 NR 19.1000 129.300 main 741 741 __________O___ -1 19.1000 129.300 2 5 62
1937245N13132 1937 38 WP MM NOT_NAMED 1937-09-07 12:00:00 NR 19.1829 129.525 main 763 763 __________P___ -1 19.1829 129.525 2 5 66
1937245N13132 1937 38 WP MM NOT_NAMED 1937-09-07 15:00:00 NR 19.2877 129.745 main 785 785 __________P___ -1 19.2877 129.745 2 5 56
1937245N13132 1937 38 WP MM NOT_NAMED 1937-09-07 18:00:00 NR 19.4486 129.943 main 807 807 __________P___ -1 19.4486 129.943 2 5 39
1937245N13132 1937 38 WP MM NOT_NAMED 1937-09-07 21:00:00 NR 19.7000 130.100 main 832 832 __________O___ -1 19.7000 130.100 2 7 27
1937245N13132 1937 38 WP MM NOT_NAMED 1937-09-08 00:00:00 NR 20.0245 130.260 main 858 858 __________P___ -1 20.0245 130.260 2 8 19
1937245N13132 1937 38 WP MM NOT_NAMED 1937-09-08 03:00:00 NR 20.4471 130.369 main 878 878 __________P___ -1 20.4471 130.369 2 10 8
1937245N13132 1937 38 WP MM NOT_NAMED 1937-09-08 06:00:00 NR 20.9712 130.394 main 896 896 __________P___ -1 20.9712 130.394 2 12 357
1937245N13132 1937 38 WP MM NOT_NAMED 1937-09-08 09:00:00 NR 21.6000 130.300 main 909 858 __________O___ -1 21.6000 130.300 2 15 346
1937245N13132 1937 38 WP MM NOT_NAMED 1937-09-08 12:00:00 NR 22.4107 130.000 main 858 793 __________P___ -1 22.4107 130.000 2 18 339
1937245N13132 1937 38 WP MM NOT_NAMED 1937-09-08 15:00:00 NR 23.3043 129.588 main 793 734 __________P___ -1 23.3043 129.588 2 19 336
1937245N13132 1937 38 WP MM NOT_NAMED 1937-09-08 18:00:00 NR 24.1704 129.156 main 732 685 __________P___ -1 24.1704 129.156 2 18 336
1937245N13132 1937 38 WP MM NOT_NAMED 1937-09-08 21:00:00 NR 24.9000 128.800 main 685 664 __________O___ -1 24.9000 128.800 2 13 338
1937245N13132 1937 38 WP MM NOT_NAMED 1937-09-09 00:00:00 NR 25.3663 128.626 main 658 626 __________P___ -1 25.3663 128.626 2 8 344
1937245N13132 1937 38 WP MM NOT_NAMED 1937-09-09 03:00:00 NR 25.6865 128.547 main 629 608 __________P___ -1 25.6865 128.547 2 6 353
1937245N13132 1937 38 WP MM NOT_NAMED 1937-09-09 06:00:00 NR 25.9134 128.545 main 608 584 __________P___ -1 25.9134 128.545 2 4 5
1937245N13132 1937 38 WP MM NOT_NAMED 1937-09-09 09:00:00 NR 26.1000 128.600 main 584 559 __________O___ -1 26.1000 128.600 2 4 14
1937245N13132 1937 38 WP MM NOT_NAMED 1937-09-09 12:00:00 NR 26.3164 128.654 main 559 535 __________P___ -1 26.3164 128.654 2 4 19
1937245N13132 1937 38 WP MM NOT_NAMED 1937-09-09 15:00:00 NR 26.5073 128.760 main 535 510 __________P___ -1 26.5073 128.760 2 4 31
1937245N13132 1937 38 WP MM NOT_NAMED 1937-09-09 18:00:00 NR 26.6945 128.911 main 510 483 __________P___ -1 26.6945 128.911 2 5 38
1937245N13132 1937 38 WP MM NOT_NAMED 1937-09-09 21:00:00 NR 26.9000 129.100 main 483 469 __________O___ -1 26.9000 129.100 2 4 45
1937245N13132 1937 38 WP MM NOT_NAMED 1937-09-10 00:00:00 NR 26.9942 129.248 main 469 453 __________P___ -1 26.9942 129.248 2 4 52
1937245N13132 1937 38 WP MM NOT_NAMED 1937-09-10 03:00:00 NR 27.1336 129.440 main 453 413 __________P___ -1 27.1336 129.440 2 6 43
1937245N13132 1937 38 WP MM NOT_NAMED 1937-09-10 06:00:00 NR 27.4312 129.711 main 413 339 __________P___ -1 27.4312 129.711 2 10 34
1937245N13132 1937 38 WP MM NOT_NAMED 1937-09-10 09:00:00 NR 28.0000 130.100 main 339 234 __________O___ -1 28.0000 130.100 2 18 29
1937245N13132 1937 38 WP MM NOT_NAMED 1937-09-10 12:00:00 NR 29.0092 130.696 main 223 111 __________P___ -1 29.0092 130.696 2 26 27
1937245N13132 1937 38 WP MM NOT_NAMED 1937-09-10 15:00:00 NR 30.2799 131.416 main 102 52 __________P___ -1 30.2799 131.416 2 30 26
1937245N13132 1937 38 WP MM NOT_NAMED 1937-09-10 18:00:00 NR 31.6601 132.180 main 67 0 __________P___ -1 31.6601 132.180 2 30 25
1937245N13132 1937 38 WP MM NOT_NAMED 1937-09-10 21:00:00 NR 33.0000 132.900 main 0 0 __________O___ -1 33.0000 132.900 2 26 22
1937245N13132 1937 38 WP MM NOT_NAMED 1937-09-11 00:00:00 NR 34.0839 133.360 main 14 0 __________P___ -1 34.0839 133.360 2 22 19
1937245N13132 1937 38 WP MM NOT_NAMED 1937-09-11 03:00:00 NR 35.1087 133.764 main 0 0 __________P___ -1 35.1087 133.764 2 21 19
1937245N13132 1937 38 WP MM NOT_NAMED 1937-09-11 06:00:00 NR 36.1046 134.210 main 58 58 __________P___ -1 36.1046 134.210 2 22 23
1937245N13132 1937 38 WP MM NOT_NAMED 1937-09-11 09:00:00 NR 37.1000 134.800 main 145 130 __________O___ -1 37.1000 134.800 2 25 29
1937245N13132 1937 38 WP MM NOT_NAMED 1937-09-11 12:00:00 NR 38.2646 135.738 main 139 133 __________P___ -1 38.2646 135.738 2 28 35
1937245N13132 1937 38 WP MM NOT_NAMED 1937-09-11 15:00:00 NR 39.4060 136.843 main 222 158 __________P___ -1 39.4060 136.843 2 28 39
1937245N13132 1937 38 WP MM NOT_NAMED 1937-09-11 18:00:00 NR 40.4184 138.006 main 154 86 __________P___ -1 40.4184 138.006 2 25 44
1937245N13132 1937 38 WP MM NOT_NAMED 1937-09-11 21:00:00 NR 41.2000 139.100 main 78 8 __________O___ -1 41.2000 139.100 2 20 50
1937245N13132 1937 38 WP MM NOT_NAMED 1937-09-12 00:00:00 NR 41.6779 140.003 main 8 0 __________P___ -1 41.6779 140.003 2 15 60
1937245N13132 1937 38 WP MM NOT_NAMED 1937-09-12 03:00:00 NR 41.9256 140.787 main 0 0 __________P___ -1 41.9256 140.787 2 11 73
1937245N13132 1937 38 WP MM NOT_NAMED 1937-09-12 06:00:00 NR 42.0107 141.451 main 33 33 __________P___ -1 42.0107 141.451 2 9 85
1937245N13132 1937 38 WP MM NOT_NAMED 1937-09-12 09:00:00 NR 42.0000 142.000 main 55 37 __________O___ -1 42.0000 142.000 2 8 91
1937245N13132 1937 38 WP MM NOT_NAMED 1937-09-12 12:00:00 NR 41.9933 142.465 main 33 23 __________P___ -1 41.9933 142.465 2 6 98
1937245N13132 1937 38 WP MM NOT_NAMED 1937-09-12 15:00:00 NR 41.9143 142.824 main 27 13 __________P___ -1 41.9143 142.824 2 5 111
1937245N13132 1937 38 WP MM NOT_NAMED 1937-09-12 18:00:00 NR 41.8034 143.120 main 13 11 __________P___ -1 41.8034 143.120 2 5 117
1937245N13132 1937 38 WP MM NOT_NAMED 1937-09-12 21:00:00 NR 41.7000 143.400 main 27 27 __________O___ -1 41.7000 143.400 2 5 111
1937245N13132 1937 38 WP MM NOT_NAMED 1937-09-13 00:00:00 NR 41.6349 143.699 main 53 53 __________P___ -1 41.6349 143.699 2 5 102
1937245N13132 1937 38 WP MM NOT_NAMED 1937-09-13 03:00:00 NR 41.6045 144.021 main 72 72 __________P___ -1 41.6045 144.021 2 5 94
1937245N13132 1937 38 WP MM NOT_NAMED 1937-09-13 06:00:00 NR 41.5968 144.357 main 101 101 __________P___ -1 41.5968 144.357 2 5 91
1937245N13132 1937 38 WP MM NOT_NAMED 1937-09-13 09:00:00 NR 41.6000 144.700 main 123 __________O___ -1 41.6000 144.700 2 5 89

デジタル台風データ・検索

IBTrACS Databaseについて

本データベースは、米国NOAAが公開する1842年以降の世界の熱帯低気圧のベストトラックデータアーカイブInternational Best Track Archive for Climate Stewardship (IBTrACS)を、ウェブで閲覧しやすい形式に変換したものです。

最終更新日:2021-12-03